This is the latest recevied weather packets stored in our database for station/object SALT. If no packets are shown the sender has not sent any weather packets the latest 10 day(s).
| Time | Temp. | Humidity | Pressure | Rain* | Wind** | Luminosity | Snow |
|---|---|---|---|---|---|---|---|
| 1778178454 | 12.22° C | 54% | 1019.5 hPa | 0 mm | - | - | - |
| 1778177852 | 13.33° C | 50% | 1019.5 hPa | 0 mm | - | - | - |
| 1778177248 | 13.33° C | 50% | 1019.5 hPa | 0 mm | - | - | - |
| 1778176646 | 13.33° C | 49% | 1019.4 hPa | 0 mm | - | - | - |
| 1778176041 | 13.33° C | 49% | 1019.5 hPa | 0 mm | - | - | - |
| 1778175439 | 12.78° C | 51% | 1019.5 hPa | 0 mm | - | - | - |
| 1778174836 | 12.78° C | 51% | 1019.4 hPa | 0 mm | - | - | - |
| 1778174234 | 11.67° C | 55% | 1019.6 hPa | 0 mm | - | - | - |
| 1778173631 | 11.67° C | 52% | 1019.6 hPa | 0 mm | - | - | - |
| 1778173028 | 11.11° C | 53% | 1019.6 hPa | 0 mm | - | - | - |
| 1778172424 | 11.67° C | 53% | 1019.5 hPa | 0 mm | - | - | - |
| 1778171820 | 11.11° C | 54% | 1019.7 hPa | 0 mm | - | - | - |
| 1778171218 | 11.11° C | 54% | 1019.5 hPa | 0 mm | - | - | - |
| 1778170648 | 10.56° C | 57% | 1019.6 hPa | 0 mm | - | - | - |
| 1778170616 | 10.56° C | 57% | 1019.6 hPa | 0 mm | - | - | - |
| 1778170013 | 10° C | 60% | 1019.8 hPa | 0 mm | - | - | - |
| 1778169411 | 10° C | 57% | 1019.7 hPa | 0 mm | - | - | - |
| 1778168805 | 9.44° C | 58% | 1019.8 hPa | 0 mm | - | - | - |
| 1778168202 | 10° C | 62% | 1019.7 hPa | 0 mm | - | - | - |
| 1778167601 | 10° C | 60% | 1019.6 hPa | 0 mm | - | - | - |
| 1778166997 | 8.89° C | 62% | 1019.6 hPa | 0 mm | - | - | - |
| 1778166394 | 9.44° C | 59% | 1019.6 hPa | 0 mm | - | - | - |
| 1778165792 | 10° C | 58% | 1019.4 hPa | 0 mm | - | - | - |
| 1778164584 | 10° C | 56% | 1019.2 hPa | 0 mm | - | - | - |
| 1778163982 | 9.44° C | 57% | 1019.1 hPa | 0 mm | - | - | - |
* Rain latest 24 hours (hover to see other rain measurements)
** Current wind speed in m/s (hover to see current wind gust speed)